createdAt,value
2023-03-21T00:01:55.540Z,100823.53
2023-03-21T00:04:25.128Z,100820.03
2023-03-21T00:06:54.531Z,100817.28
2023-03-21T00:09:24.281Z,100818.53
2023-03-21T00:11:52.618Z,100819.28
2023-03-21T00:14:20.877Z,100820.56
2023-03-21T00:16:50.936Z,100809.50
2023-03-21T00:19:21.893Z,100813.53
2023-03-21T00:22:08.729Z,100813.00
2023-03-21T00:24:38.170Z,100797.94
2023-03-21T00:27:33.747Z,100805.25
2023-03-21T00:29:56.934Z,100799.94
2023-03-21T00:32:25.724Z,100795.69
2023-03-21T00:35:11.896Z,100794.19
2023-03-21T00:37:44.104Z,100796.94
2023-03-21T00:40:25.410Z,100798.75
2023-03-21T00:42:56.190Z,100791.31
2023-03-21T00:45:25.001Z,100797.19
2023-03-21T00:47:53.527Z,100788.25
2023-03-21T00:50:23.801Z,100783.38
2023-03-21T00:52:52.418Z,100776.97
2023-03-21T00:55:21.109Z,100769.31
2023-03-21T00:57:56.107Z,100765.19
2023-03-21T01:00:28.105Z,100771.34
2023-03-21T01:03:04.441Z,100767.91
2023-03-21T01:05:53.130Z,100764.50
2023-03-21T01:08:29.392Z,100767.16
2023-03-21T01:11:05.533Z,100761.19
2023-03-21T01:13:36.347Z,100763.00
2023-03-21T01:16:07.282Z,100755.56
2023-03-21T01:18:37.864Z,100762.44
2023-03-21T01:21:11.230Z,100751.25
2023-03-21T01:23:40.862Z,100750.63
2023-03-21T01:26:09.962Z,100748.47
2023-03-21T01:28:40.305Z,100742.81
2023-03-21T01:31:09.724Z,100754.44
2023-03-21T01:33:38.023Z,100754.50
2023-03-21T01:36:12.973Z,100750.88
2023-03-21T01:38:43.742Z,100746.50
2023-03-21T01:41:26.221Z,100740.31
2023-03-21T01:43:57.175Z,100743.16
2023-03-21T01:46:51.887Z,100743.00
2023-03-21T01:50:01.793Z,100739.56
2023-03-21T01:52:55.112Z,100739.13
2023-03-21T01:55:32.641Z,100735.41
2023-03-21T01:58:07.632Z,100741.19
2023-03-21T02:00:50.210Z,100739.22
2023-03-21T02:03:35.775Z,100745.56
2023-03-21T02:06:31.975Z,100740.13
2023-03-21T02:09:14.670Z,100731.91
2023-03-21T02:11:46.487Z,100730.94
2023-03-21T02:14:28.369Z,100721.69
2023-03-21T02:17:10.258Z,100719.41
2023-03-21T02:20:09.060Z,100722.41
2023-03-21T02:23:22.822Z,100718.66
2023-03-21T02:26:12.534Z,100719.41
2023-03-21T02:28:49.019Z,100707.34
2023-03-21T02:31:37.314Z,100707.22
2023-03-21T02:34:39.258Z,100708.59
2023-03-21T02:37:18.049Z,100703.31
2023-03-21T02:40:02.106Z,100703.97
2023-03-21T02:42:38.057Z,100704.28
2023-03-21T02:45:14.532Z,100703.53
2023-03-21T02:47:52.658Z,100699.28
2023-03-21T02:50:30.240Z,100703.09
2023-03-21T02:53:00.800Z,100706.81
2023-03-21T02:55:34.258Z,100711.59
2023-03-21T02:58:13.096Z,100704.78
2023-03-21T03:00:48.714Z,100702.28
2023-03-21T03:03:34.594Z,100700.56
2023-03-21T03:06:12.977Z,100701.31
2023-03-21T03:09:02.613Z,100704.94
2023-03-21T03:11:36.121Z,100702.88
2023-03-21T03:14:40.062Z,100699.78
2023-03-21T03:17:21.433Z,100692.03
2023-03-21T03:20:15.510Z,100694.81
2023-03-21T03:22:56.273Z,100688.13
2023-03-21T03:25:42.214Z,100691.16
2023-03-21T03:28:16.561Z,100688.50
2023-03-21T03:31:07.148Z,100689.31
2023-03-21T03:33:42.780Z,100691.63
2023-03-21T03:36:33.646Z,100697.19
2023-03-21T03:39:10.605Z,100683.69
2023-03-21T03:44:42.314Z,100680.91
2023-03-21T03:47:31.482Z,100688.13
2023-03-21T03:50:11.893Z,100684.31
2023-03-21T03:52:55.570Z,100686.78
2023-03-21T03:55:28.094Z,100686.78
2023-03-21T03:58:04.663Z,100685.75
2023-03-21T04:00:33.864Z,100683.72
2023-03-21T04:03:02.436Z,100684.69
2023-03-21T04:05:31.035Z,100686.41
2023-03-21T04:08:02.586Z,100685.38
2023-03-21T04:10:37.930Z,100683.25
2023-03-21T04:13:08.726Z,100676.69
2023-03-21T04:15:52.722Z,100680.13
2023-03-21T04:18:23.969Z,100681.59
2023-03-21T04:20:53.286Z,100672.59
2023-03-21T04:23:21.629Z,100680.88
2023-03-21T04:25:56.804Z,100674.63
2023-03-21T04:28:36.410Z,100673.13
2023-03-21T04:31:35.954Z,100676.69
2023-03-21T04:34:12.908Z,100677.16
2023-03-21T04:36:47.371Z,100674.47
2023-03-21T04:39:16.722Z,100674.25
2023-03-21T04:41:49.752Z,100676.28
2023-03-21T04:44:19.732Z,100672.25
2023-03-21T04:46:48.286Z,100674.53
2023-03-21T04:49:16.697Z,100676.66
2023-03-21T04:51:46.381Z,100669.44
2023-03-21T04:54:19.397Z,100678.94
2023-03-21T04:56:52.353Z,100675.00
2023-03-21T04:59:22.079Z,100678.28
2023-03-21T05:01:56.812Z,100676.88
2023-03-21T05:04:27.335Z,100666.88
2023-03-21T05:06:59.217Z,100672.91
2023-03-21T05:09:27.966Z,100673.88
2023-03-21T05:11:56.619Z,100675.09
2023-03-21T05:14:28.365Z,100674.03
2023-03-21T05:16:57.704Z,100666.31
2023-03-21T05:19:38.025Z,100663.94
2023-03-21T05:22:09.407Z,100657.38
2023-03-21T05:24:39.363Z,100659.16
2023-03-21T05:27:14.119Z,100657.22
2023-03-21T05:29:47.975Z,100666.31
2023-03-21T05:32:17.375Z,100664.88
2023-03-21T05:34:46.813Z,100663.97
2023-03-21T05:37:15.540Z,100659.72
2023-03-21T05:39:51.912Z,100658.97
2023-03-21T05:42:29.059Z,100651.22
2023-03-21T05:44:59.400Z,100650.50
2023-03-21T05:47:41.861Z,100647.22
2023-03-21T05:50:13.225Z,100649.16
2023-03-21T05:52:44.161Z,100642.59
2023-03-21T05:55:15.586Z,100651.41
2023-03-21T05:57:44.434Z,100658.16
2023-03-21T06:00:23.030Z,100649.38
2023-03-21T06:03:07.318Z,100655.88
2023-03-21T06:05:57.855Z,100662.38
2023-03-21T06:08:36.787Z,100665.56
2023-03-21T06:11:07.131Z,100651.41
2023-03-21T06:13:40.775Z,100661.81
2023-03-21T06:16:13.218Z,100661.22
2023-03-21T06:18:41.617Z,100662.22
2023-03-21T06:21:21.721Z,100667.69
2023-03-21T06:23:51.852Z,100671.66
2023-03-21T06:26:23.072Z,100669.19
2023-03-21T06:28:54.086Z,100667.81
2023-03-21T06:31:25.433Z,100672.66
2023-03-21T06:33:57.194Z,100668.41
2023-03-21T06:36:25.919Z,100666.78
2023-03-21T06:38:54.188Z,100673.91
2023-03-21T06:41:23.145Z,100671.97
2023-03-21T06:44:02.207Z,100676.22
2023-03-21T06:46:36.333Z,100673.91
2023-03-21T06:49:05.672Z,100679.84
2023-03-21T06:51:34.207Z,100685.03
2023-03-21T06:54:09.979Z,100684.84
2023-03-21T06:56:54.294Z,100680.47
2023-03-21T06:59:27.657Z,100680.00
2023-03-21T07:02:05.079Z,100685.00
2023-03-21T07:04:37.874Z,100687.56
2023-03-21T07:07:08.561Z,100681.13
2023-03-21T07:09:38.351Z,100680.09
2023-03-21T07:12:08.091Z,100684.53
2023-03-21T07:14:56.056Z,100685.28
2023-03-21T07:17:27.323Z,100680.88
2023-03-21T07:20:00.901Z,100679.59
2023-03-21T07:22:30.489Z,100686.06
2023-03-21T07:25:05.181Z,100680.50
2023-03-21T07:27:41.057Z,100680.50
2023-03-21T07:30:11.749Z,100681.81
2023-03-21T07:32:41.785Z,100683.09
2023-03-21T07:35:13.716Z,100684.78
2023-03-21T07:37:43.095Z,100679.38
2023-03-21T07:40:14.766Z,100684.06
2023-03-21T07:42:43.602Z,100688.28
2023-03-21T07:45:17.321Z,100683.78
2023-03-21T07:47:50.150Z,100688.09
2023-03-21T07:50:19.196Z,100673.56
2023-03-21T07:52:47.808Z,100683.03
2023-03-21T07:55:17.346Z,100683.22
2023-03-21T07:57:46.188Z,100682.09
2023-03-21T08:00:22.890Z,100682.50
2023-03-21T08:02:58.561Z,100682.53
2023-03-21T08:05:30.208Z,100689.94
2023-03-21T08:07:58.710Z,100690.91
2023-03-21T08:10:29.525Z,100687.50
2023-03-21T08:12:57.714Z,100695.22
2023-03-21T08:15:27.247Z,100680.41
2023-03-21T08:17:57.058Z,100690.66
2023-03-21T08:20:25.787Z,100686.69
2023-03-21T08:22:54.589Z,100688.19
2023-03-21T08:25:24.073Z,100679.53
2023-03-21T08:27:53.171Z,100677.31
2023-03-21T08:30:23.090Z,100687.03
2023-03-21T08:32:51.110Z,100683.03
2023-03-21T08:35:21.205Z,100679.13
2023-03-21T08:37:49.644Z,100679.09
2023-03-21T08:40:20.529Z,100675.94
2023-03-21T08:42:48.755Z,100679.28
2023-03-21T08:45:19.533Z,100681.75
2023-03-21T08:47:50.460Z,100686.97
2023-03-21T08:50:22.301Z,100680.16
2023-03-21T08:52:51.021Z,100689.63
2023-03-21T08:55:20.513Z,100684.63
2023-03-21T08:57:48.751Z,100686.59
2023-03-21T09:00:18.809Z,100684.50
2023-03-21T09:02:49.396Z,100682.53
2023-03-21T09:05:18.695Z,100685.84
2023-03-21T09:07:49.626Z,100682.53
2023-03-21T09:10:22.516Z,100679.84
2023-03-21T09:12:52.448Z,100681.81
2023-03-21T09:15:24.740Z,100673.84
2023-03-21T09:17:54.658Z,100675.72
2023-03-21T09:20:30.635Z,100671.59
2023-03-21T09:23:02.157Z,100664.03
2023-03-21T09:25:32.657Z,100675.75
2023-03-21T09:28:02.151Z,100675.50
2023-03-21T09:30:31.455Z,100680.13
2023-03-21T09:33:01.016Z,100664.91
2023-03-21T09:35:29.593Z,100670.56
2023-03-21T09:37:59.153Z,100679.31
2023-03-21T09:40:52.864Z,100669.44
2023-03-21T09:43:37.216Z,100668.16
2023-03-21T09:46:15.347Z,100675.56
2023-03-21T09:48:57.740Z,100675.28
2023-03-21T09:51:29.416Z,100672.88
2023-03-21T09:54:03.419Z,100668.47
2023-03-21T09:56:33.204Z,100675.38
2023-03-21T09:59:03.405Z,100674.03
2023-03-21T10:01:35.730Z,100669.47
2023-03-21T10:04:13.547Z,100670.34
2023-03-21T10:06:45.913Z,100664.75
2023-03-21T10:09:22.868Z,100669.59
2023-03-21T10:11:56.974Z,100658.56
2023-03-21T10:14:31.786Z,100668.72
2023-03-21T10:17:04.231Z,100673.19
2023-03-21T10:19:35.375Z,100664.78
2023-03-21T10:22:04.401Z,100669.56
2023-03-21T10:24:34.980Z,100659.63
2023-03-21T10:27:06.034Z,100657.56
2023-03-21T10:29:44.763Z,100660.03
2023-03-21T10:32:15.259Z,100656.38
2023-03-21T10:34:48.051Z,100660.81
2023-03-21T10:37:17.635Z,100654.59
2023-03-21T10:39:48.215Z,100664.81
2023-03-21T10:42:22.188Z,100654.94
2023-03-21T10:44:52.508Z,100655.25
2023-03-21T10:47:23.033Z,100655.78
2023-03-21T10:50:06.843Z,100655.84
2023-03-21T10:52:38.140Z,100644.38
2023-03-21T10:55:10.269Z,100636.00
2023-03-21T10:57:40.439Z,100641.97
2023-03-21T11:00:20.401Z,100637.00
2023-03-21T11:02:51.247Z,100637.72
2023-03-21T11:05:23.275Z,100634.25
2023-03-21T11:08:03.968Z,100637.72
2023-03-21T11:10:35.397Z,100638.25
2023-03-21T11:13:08.574Z,100648.31
2023-03-21T11:15:44.426Z,100647.38
2023-03-21T11:18:19.200Z,100635.31
2023-03-21T11:20:53.358Z,100644.47
2023-03-21T11:23:26.157Z,100645.59
2023-03-21T11:25:54.975Z,100639.59
2023-03-21T11:28:33.286Z,100637.25
2023-03-21T11:31:04.097Z,100637.41
2023-03-21T11:33:35.577Z,100631.88
2023-03-21T11:36:06.513Z,100631.41
2023-03-21T11:38:38.523Z,100633.25
2023-03-21T11:41:10.218Z,100633.25
2023-03-21T11:43:42.000Z,100634.69
2023-03-21T11:46:11.550Z,100619.91
2023-03-21T11:48:42.033Z,100621.16
2023-03-21T11:51:19.287Z,100619.91
2023-03-21T11:53:53.226Z,100621.84
2023-03-21T11:56:26.509Z,100614.53
2023-03-21T11:59:08.711Z,100615.69
2023-03-21T12:01:47.018Z,100605.59
2023-03-21T12:04:28.019Z,100609.13
2023-03-21T12:07:04.476Z,100607.19
2023-03-21T12:09:41.335Z,100586.56
2023-03-21T12:12:38.801Z,100593.38
2023-03-21T12:15:19.592Z,100586.25
2023-03-21T12:17:57.525Z,100585.00
2023-03-21T12:20:40.833Z,100573.16
2023-03-21T12:23:29.947Z,100569.09
2023-03-21T12:26:12.526Z,100567.41
2023-03-21T12:28:56.383Z,100567.00
2023-03-21T12:31:31.580Z,100567.19
2023-03-21T12:34:15.265Z,100563.91
2023-03-21T12:37:09.566Z,100565.47
2023-03-21T12:39:40.742Z,100554.41
2023-03-21T12:42:39.252Z,100546.97
2023-03-21T12:45:15.716Z,100542.75
2023-03-21T12:47:52.750Z,100541.13
2023-03-21T12:50:24.623Z,100540.81
2023-03-21T12:52:57.287Z,100536.41
2023-03-21T12:55:29.938Z,100535.09
2023-03-21T12:58:05.201Z,100531.84
2023-03-21T13:00:39.798Z,100532.28
2023-03-21T13:03:18.228Z,100522.75
2023-03-21T13:05:51.615Z,100529.81
2023-03-21T13:08:26.264Z,100526.25
2023-03-21T13:10:56.805Z,100518.72
2023-03-21T13:13:33.846Z,100523.53
2023-03-21T13:16:09.140Z,100515.09
2023-03-21T13:18:53.501Z,100510.53
2023-03-21T13:21:29.928Z,100512.34
2023-03-21T13:24:03.059Z,100503.50
2023-03-21T13:26:39.485Z,100504.66
2023-03-21T13:29:15.971Z,100503.28
2023-03-21T13:31:52.551Z,100496.84
2023-03-21T13:34:25.624Z,100495.00
2023-03-21T13:36:54.274Z,100486.44
2023-03-21T13:39:27.910Z,100479.22
2023-03-21T13:41:56.616Z,100475.38
2023-03-21T13:44:33.177Z,100483.38
2023-03-21T13:47:06.195Z,100485.19
2023-03-21T13:49:39.059Z,100480.28
2023-03-21T13:52:29.386Z,100477.78
2023-03-21T13:54:59.013Z,100479.34
2023-03-21T13:57:47.615Z,100475.03
2023-03-21T14:00:24.196Z,100473.97
2023-03-21T14:02:59.911Z,100473.81
2023-03-21T14:05:30.391Z,100459.91
2023-03-21T14:08:13.618Z,100467.88
2023-03-21T14:10:46.279Z,100462.63
2023-03-21T14:13:20.533Z,100453.38
2023-03-21T14:15:55.939Z,100455.16
2023-03-21T14:18:34.934Z,100449.19
2023-03-21T14:21:09.203Z,100458.25
2023-03-21T14:23:40.456Z,100446.84
2023-03-21T14:26:12.079Z,100454.13
2023-03-21T14:28:49.434Z,100448.94
2023-03-21T14:31:21.158Z,100454.25
2023-03-21T14:33:53.922Z,100451.13
2023-03-21T14:36:29.383Z,100451.69
2023-03-21T14:39:04.816Z,100441.53
2023-03-21T14:41:34.856Z,100428.97
2023-03-21T14:44:13.352Z,100432.28
2023-03-21T14:46:42.015Z,100430.84
2023-03-21T14:49:23.020Z,100434.25
2023-03-21T14:51:54.981Z,100423.06
2023-03-21T14:54:27.212Z,100421.59
2023-03-21T14:57:00.331Z,100410.59
2023-03-21T14:59:33.603Z,100396.13
2023-03-21T15:02:06.195Z,100387.38
2023-03-21T15:04:34.581Z,100368.66
2023-03-21T15:07:07.891Z,100351.13
2023-03-21T15:09:36.384Z,100355.31
2023-03-21T15:12:10.653Z,100372.16
2023-03-21T15:14:39.281Z,100393.09
2023-03-21T15:17:09.185Z,100403.59
2023-03-21T15:19:40.451Z,100406.38
2023-03-21T15:22:17.503Z,100401.34
2023-03-21T15:24:50.832Z,100401.78
2023-03-21T15:27:22.256Z,100397.84
2023-03-21T15:29:54.607Z,100402.19
2023-03-21T15:32:26.598Z,100400.06
2023-03-21T15:34:58.176Z,100398.66
2023-03-21T15:37:29.995Z,100395.88
2023-03-21T15:40:11.300Z,100377.22
2023-03-21T15:42:41.780Z,100381.31
2023-03-21T15:45:18.054Z,100376.69
2023-03-21T15:47:55.799Z,100375.22
2023-03-21T15:50:31.541Z,100378.97
2023-03-21T15:53:05.355Z,100373.25
2023-03-21T15:55:41.868Z,100377.69
2023-03-21T15:58:16.992Z,100360.00
2023-03-21T16:00:53.579Z,100352.69
2023-03-21T16:03:27.296Z,100335.88
2023-03-21T16:06:17.088Z,100327.00
2023-03-21T16:08:47.667Z,100333.88
2023-03-21T16:11:19.913Z,100333.75
2023-03-21T16:13:48.510Z,100346.38
2023-03-21T16:16:18.590Z,100360.00
2023-03-21T16:18:47.427Z,100371.84
2023-03-21T16:21:19.581Z,100378.81
2023-03-21T16:23:49.901Z,100379.09
2023-03-21T16:26:19.999Z,100375.03
2023-03-21T16:28:49.086Z,100376.84
2023-03-21T16:31:19.199Z,100373.88
2023-03-21T16:33:48.676Z,100379.81
2023-03-21T16:36:20.073Z,100382.03
2023-03-21T16:38:52.608Z,100365.19
2023-03-21T16:41:23.884Z,100381.69
2023-03-21T16:43:53.266Z,100378.19
2023-03-21T16:46:23.227Z,100382.13
2023-03-21T16:48:55.086Z,100376.97
2023-03-21T16:51:29.161Z,100359.59
2023-03-21T16:53:59.469Z,100363.94
2023-03-21T16:56:30.950Z,100352.84
2023-03-21T16:59:00.332Z,100369.75
2023-03-21T17:01:30.041Z,100373.09
2023-03-21T17:03:59.210Z,100377.00
2023-03-21T17:06:29.871Z,100369.81
2023-03-21T17:09:01.778Z,100367.56
2023-03-21T17:11:35.889Z,100371.31
2023-03-21T17:14:04.190Z,100373.78
2023-03-21T17:16:32.440Z,100367.13
2023-03-21T17:19:01.707Z,100369.38
2023-03-21T17:21:31.196Z,100377.38
2023-03-21T17:24:01.786Z,100374.63
2023-03-21T17:26:31.394Z,100373.72
2023-03-21T17:28:59.858Z,100372.44
2023-03-21T17:31:32.888Z,100371.91
2023-03-21T17:34:03.477Z,100378.22
2023-03-21T17:36:35.703Z,100379.94
2023-03-21T17:39:07.003Z,100373.84
2023-03-21T17:41:35.971Z,100372.75
2023-03-21T17:44:04.559Z,100371.31
2023-03-21T17:46:37.027Z,100369.09
2023-03-21T17:49:06.015Z,100360.41
2023-03-21T17:51:34.433Z,100352.28
2023-03-21T17:54:05.090Z,100353.41
2023-03-21T17:56:37.368Z,100372.44
2023-03-21T17:59:07.279Z,100367.28
2023-03-21T18:01:36.402Z,100369.16
2023-03-21T18:04:05.407Z,100359.00
2023-03-21T18:06:35.240Z,100363.44
2023-03-21T18:09:07.188Z,100354.56
2023-03-21T18:11:37.655Z,100361.78
2023-03-21T18:14:16.280Z,100362.34
2023-03-21T18:16:47.211Z,100365.13
2023-03-21T18:19:15.589Z,100357.38
2023-03-21T18:21:45.265Z,100360.16
2023-03-21T18:24:14.713Z,100368.63
2023-03-21T18:26:44.732Z,100371.78
2023-03-21T18:32:07.523Z,100371.78
2023-03-21T18:34:38.196Z,100378.97
2023-03-21T18:37:07.982Z,100376.56
2023-03-21T18:39:36.618Z,100382.06
2023-03-21T18:42:07.076Z,100377.81
2023-03-21T18:44:39.094Z,100383.13
2023-03-21T18:47:08.737Z,100392.16
2023-03-21T18:52:26.458Z,100391.69
2023-03-21T18:54:55.595Z,100392.97
2023-03-21T18:57:36.278Z,100392.38
2023-03-21T19:00:10.785Z,100394.69
2023-03-21T19:02:45.698Z,100396.88
2023-03-21T19:05:16.515Z,100393.50
2023-03-21T19:07:44.911Z,100386.31
2023-03-21T19:10:18.531Z,100394.22
2023-03-21T19:12:49.815Z,100403.78
2023-03-21T19:15:24.483Z,100397.53
2023-03-21T19:20:45.962Z,100397.16
2023-03-21T19:23:17.261Z,100406.75
2023-03-21T19:25:46.077Z,100412.50
2023-03-21T19:28:16.346Z,100406.03
2023-03-21T19:30:50.293Z,100409.31
2023-03-21T19:33:20.090Z,100415.94
2023-03-21T19:35:48.729Z,100402.28
2023-03-21T19:38:17.445Z,100404.84
2023-03-21T19:40:46.541Z,100404.44
2023-03-21T19:43:32.300Z,100409.03
2023-03-21T19:46:02.297Z,100402.75
2023-03-21T19:48:32.836Z,100397.03
2023-03-21T19:53:51.158Z,100384.69
2023-03-21T19:56:23.143Z,100387.44
2023-03-21T19:58:55.782Z,100381.19
2023-03-21T20:01:25.429Z,100395.19
2023-03-21T20:03:53.559Z,100390.81
2023-03-21T20:06:23.872Z,100395.81
2023-03-21T20:09:34.016Z,100391.22
2023-03-21T20:11:41.852Z,100394.91
2023-03-21T20:14:11.776Z,100380.53
2023-03-21T20:16:43.861Z,100383.72
2023-03-21T20:19:15.902Z,100386.13
2023-03-21T20:21:52.312Z,100392.44
2023-03-21T20:24:23.020Z,100396.19
2023-03-21T20:26:53.705Z,100403.25
2023-03-21T20:32:13.296Z,100400.72
2023-03-21T20:34:44.303Z,100400.38
2023-03-21T20:37:13.287Z,100396.09
2023-03-21T20:39:42.913Z,100397.03
2023-03-21T20:42:14.298Z,100401.50
2023-03-21T20:44:58.465Z,100409.97
2023-03-21T20:47:29.221Z,100409.63
2023-03-21T20:49:58.488Z,100410.56
2023-03-21T20:55:16.739Z,100396.72
2023-03-21T20:57:48.869Z,100394.50
2023-03-21T21:00:22.343Z,100390.25
2023-03-21T21:02:51.928Z,100387.84
2023-03-21T21:05:35.891Z,100385.44
2023-03-21T21:08:05.259Z,100394.84
2023-03-21T21:10:35.070Z,100381.53
2023-03-21T21:13:07.485Z,100386.69
2023-03-21T21:15:37.367Z,100379.28
2023-03-21T21:18:07.603Z,100376.50
2023-03-21T21:20:37.265Z,100372.41
2023-03-21T21:23:06.620Z,100387.66
2023-03-21T21:25:35.286Z,100383.75
2023-03-21T21:28:08.962Z,100379.13
2023-03-21T21:30:56.393Z,100382.78
2023-03-21T21:33:29.233Z,100388.25
2023-03-21T21:36:00.064Z,100385.81
2023-03-21T21:38:28.486Z,100382.88
2023-03-21T21:41:00.101Z,100392.25
2023-03-21T21:43:28.718Z,100387.81
2023-03-21T21:46:02.522Z,100387.81
2023-03-21T21:48:30.895Z,100387.06
2023-03-21T21:51:01.468Z,100389.28
2023-03-21T21:53:34.000Z,100383.63
2023-03-21T21:56:02.636Z,100391.75
2023-03-21T21:58:38.645Z,100387.00
2023-03-21T22:01:08.413Z,100386.50
2023-03-21T22:03:41.098Z,100385.81
2023-03-21T22:06:10.735Z,100382.88
2023-03-21T22:08:47.044Z,100384.44
2023-03-21T22:11:16.302Z,100395.53
2023-03-21T22:13:45.384Z,100390.56
2023-03-21T22:16:15.421Z,100390.97
2023-03-21T22:18:46.819Z,100397.81
2023-03-21T22:21:17.729Z,100393.06
2023-03-21T22:23:46.367Z,100384.75
2023-03-21T22:26:14.682Z,100381.25
2023-03-21T22:28:43.499Z,100393.25
2023-03-21T22:31:16.966Z,100384.38
2023-03-21T22:33:45.797Z,100380.88
2023-03-21T22:36:16.623Z,100378.13
2023-03-21T22:38:44.740Z,100381.63
2023-03-21T22:41:12.913Z,100389.56
2023-03-21T22:43:41.586Z,100381.47
2023-03-21T22:46:09.917Z,100376.88
2023-03-21T22:48:39.931Z,100374.47
2023-03-21T22:51:09.105Z,100376.88
2023-03-21T22:53:37.442Z,100382.03
2023-03-21T22:56:06.377Z,100373.38
2023-03-21T22:58:34.810Z,100382.03
2023-03-21T23:01:05.176Z,100376.88
2023-03-21T23:03:33.708Z,100376.66
2023-03-21T23:06:03.896Z,100370.53
2023-03-21T23:08:32.453Z,100376.06
2023-03-21T23:11:07.411Z,100379.53
2023-03-21T23:13:36.743Z,100373.44
2023-03-21T23:16:06.488Z,100371.19
2023-03-21T23:18:37.453Z,100365.09
2023-03-21T23:21:13.232Z,100370.97
2023-03-21T23:23:43.844Z,100371.88
2023-03-21T23:26:12.376Z,100363.63
2023-03-21T23:28:40.742Z,100364.41
2023-03-21T23:31:10.239Z,100367.75
2023-03-21T23:33:38.844Z,100363.34
2023-03-21T23:36:10.865Z,100364.66
2023-03-21T23:38:39.541Z,100364.88
2023-03-21T23:41:08.721Z,100364.69
2023-03-21T23:43:37.716Z,100361.75
2023-03-21T23:46:06.782Z,100360.69
2023-03-21T23:48:35.676Z,100351.47
2023-03-21T23:51:04.572Z,100355.16
2023-03-21T23:53:34.194Z,100353.84
2023-03-21T23:56:02.840Z,100358.84
2023-03-21T23:58:32.587Z,100348.50
